Titan — 9HA4287 — position and weather

sailwx.info

Track history (hours):
 
Tides and Currents Weather Stations Pressure Air Temp Water Temp Dewpoint Dewpoint Depression Visibility Wind Speed Wind Dir Waves Ship Positions

Titan

Last reported at 2018-Feb-18 15:01 UTC. Time now 2018-Feb-20 08:02 UTC.
Position N 36°37' E 014°34'.

Length 369 m; draft 15.5 m.

Type: Ship (hazmat cat A). MMSI: 249558000.

Date/timePositionNaut miles runAvg speedWind from/ knotsBaromVisibWave heightAir tempDewpointWater temp
2018-Feb-18 15:01N 36°37' E 014°34'115.4
2018-Feb-18 14:58N 36°37' E 014°35'816.5
2018-Feb-18 14:28N 36°36' E 014°46'42715.1
2018-Feb-17 10:13N 37°18' E 023°38'416.8
2018-Feb-17 10:00N 37°21' E 023°38'816.8
2018-Feb-17 09:31N 37°30' E 023°40'816.8
2018-Feb-17 09:00N 37°38' E 023°42'816.0
2018-Feb-17 08:30N 37°46' E 023°39'816.0
2018-Feb-17 08:01N 37°53' E 023°36'4 7.7
2018-Feb-17 07:30N 37°57' E 023°35'0 0.5
2018-Feb-17 06:58N 37°57' E 023°35'0 0.0
2018-Feb-17 06:28N 37°57' E 023°35'0 0.0
2018-Feb-17 05:58N 37°57' E 023°35'0 0.0
2018-Feb-17 05:28N 37°57' E 023°35'0 0.0
2018-Feb-17 04:58N 37°57' E 023°35'0 0.0
2018-Feb-17 04:28N 37°57' E 023°35'0 0.0
2018-Feb-17 03:58N 37°57' E 023°35'0 0.0
2018-Feb-17 03:28N 37°57' E 023°35'0 0.0
2018-Feb-17 02:58N 37°57' E 023°35'0 0.0
2018-Feb-17 02:28N 37°57' E 023°35'0 0.0
2018-Feb-17 01:58N 37°57' E 023°35'0 0.0
2018-Feb-17 01:28N 37°57' E 023°35'0 0.0
2018-Feb-17 00:58N 37°57' E 023°35'0 0.0
2018-Feb-17 00:28N 37°57' E 023°35'0 0.0
2018-Feb-16 23:58N 37°57' E 023°35'0 0.0
2018-Feb-16 23:28N 37°57' E 023°35'0 0.0
2018-Feb-16 22:58N 37°57' E 023°35'0 0.0
2018-Feb-16 22:28N 37°57' E 023°35'0 0.0
2018-Feb-16 21:58N 37°57' E 023°35'0 0.0
2018-Feb-16 21:28N 37°57' E 023°35'0 0.0
2018-Feb-16 20:58N 37°57' E 023°35'0 0.0
2018-Feb-16 20:28N 37°57' E 023°35'0 0.0
2018-Feb-16 19:58N 37°57' E 023°35'0 0.0
2018-Feb-16 19:28N 37°57' E 023°35'0 0.0
2018-Feb-16 18:58N 37°57' E 023°35'0 0.0
2018-Feb-16 18:28N 37°57' E 023°35'0 0.0
2018-Feb-16 17:58N 37°57' E 023°35'0 0.0
2018-Feb-16 17:28N 37°57' E 023°35'0 0.0
2018-Feb-16 16:58N 37°57' E 023°35'0 0.0
2018-Feb-16 16:28N 37°57' E 023°35'0 0.0
2018-Feb-16 15:58N 37°57' E 023°35'0 0.4
2018-Feb-16 15:30N 37°57' E 023°35'2 4.2
2018-Feb-16 15:01N 37°55' E 023°35'1 2.2
2018-Feb-16 14:30N 37°54' E 023°35'3 6.0
2018-Feb-16 14:00N 37°51' E 023°37'612.1
2018-Feb-16 13:30N 37°47' E 023°42'611.5
2018-Feb-16 13:00N 37°42' E 023°45'4 8.0
2018-Feb-16 12:30N 37°38' E 023°48'2 4.0
2018-Feb-16 11:59N 37°37' E 023°45'2 4.7
2018-Feb-16 11:30N 37°39' E 023°43'2 3.6
2018-Feb-16 11:00N 37°40' E 023°45'1 1.3
2018-Feb-16 10:30N 37°41' E 023°46'2 3.9
2018-Feb-16 10:00N 37°39' E 023°46'510.3
2018-Feb-16 09:30N 37°34' E 023°49'713.1
2018-Feb-16 09:00N 37°28' E 023°51'  
Track history (hours):
 
Tides and Currents Weather Stations Pressure Air Temp Water Temp Dewpoint Dewpoint Depression Visibility Wind Speed Wind Dir Waves Ship Positions

Titan

Last reported at 2018-Feb-18 15:01 UTC. Time now 2018-Feb-20 08:02 UTC.
Position N 36°37' E 014°34'.

Length 369 m; draft 15.5 m.

Type: Ship (hazmat cat A). MMSI: 249558000.

Date/timePositionNaut miles runAvg speedWind from/ knotsBaromVisibWave heightAir tempDewpointWater temp
2018-Feb-18 15:01N 36°37' E 014°34'115.4
2018-Feb-18 14:58N 36°37' E 014°35'816.5
2018-Feb-18 14:28N 36°36' E 014°46'42715.1
2018-Feb-17 10:13N 37°18' E 023°38'416.8
2018-Feb-17 10:00N 37°21' E 023°38'816.8
2018-Feb-17 09:31N 37°30' E 023°40'816.8
2018-Feb-17 09:00N 37°38' E 023°42'816.0
2018-Feb-17 08:30N 37°46' E 023°39'816.0
2018-Feb-17 08:01N 37°53' E 023°36'4 7.7
2018-Feb-17 07:30N 37°57' E 023°35'0 0.5
2018-Feb-17 06:58N 37°57' E 023°35'0 0.0
2018-Feb-17 06:28N 37°57' E 023°35'0 0.0
2018-Feb-17 05:58N 37°57' E 023°35'0 0.0
2018-Feb-17 05:28N 37°57' E 023°35'0 0.0
2018-Feb-17 04:58N 37°57' E 023°35'0 0.0
2018-Feb-17 04:28N 37°57' E 023°35'0 0.0
2018-Feb-17 03:58N 37°57' E 023°35'0 0.0
2018-Feb-17 03:28N 37°57' E 023°35'0 0.0
2018-Feb-17 02:58N 37°57' E 023°35'0 0.0
2018-Feb-17 02:28N 37°57' E 023°35'0 0.0
2018-Feb-17 01:58N 37°57' E 023°35'0 0.0
2018-Feb-17 01:28N 37°57' E 023°35'0 0.0
2018-Feb-17 00:58N 37°57' E 023°35'0 0.0
2018-Feb-17 00:28N 37°57' E 023°35'0 0.0
2018-Feb-16 23:58N 37°57' E 023°35'0 0.0
2018-Feb-16 23:28N 37°57' E 023°35'0 0.0
2018-Feb-16 22:58N 37°57' E 023°35'0 0.0
2018-Feb-16 22:28N 37°57' E 023°35'0 0.0
2018-Feb-16 21:58N 37°57' E 023°35'0 0.0
2018-Feb-16 21:28N 37°57' E 023°35'0 0.0
2018-Feb-16 20:58N 37°57' E 023°35'0 0.0
2018-Feb-16 20:28N 37°57' E 023°35'0 0.0
2018-Feb-16 19:58N 37°57' E 023°35'0 0.0
2018-Feb-16 19:28N 37°57' E 023°35'0 0.0
2018-Feb-16 18:58N 37°57' E 023°35'0 0.0
2018-Feb-16 18:28N 37°57' E 023°35'0 0.0
2018-Feb-16 17:58N 37°57' E 023°35'0 0.0
2018-Feb-16 17:28N 37°57' E 023°35'0 0.0
2018-Feb-16 16:58N 37°57' E 023°35'0 0.0
2018-Feb-16 16:28N 37°57' E 023°35'0 0.0
2018-Feb-16 15:58N 37°57' E 023°35'0 0.4
2018-Feb-16 15:30N 37°57' E 023°35'2 4.2
2018-Feb-16 15:01N 37°55' E 023°35'1 2.2
2018-Feb-16 14:30N 37°54' E 023°35'3 6.0
2018-Feb-16 14:00N 37°51' E 023°37'612.1
2018-Feb-16 13:30N 37°47' E 023°42'611.5
2018-Feb-16 13:00N 37°42' E 023°45'4 8.0
2018-Feb-16 12:30N 37°38' E 023°48'2 4.0
2018-Feb-16 11:59N 37°37' E 023°45'2 4.7
2018-Feb-16 11:30N 37°39' E 023°43'2 3.6
2018-Feb-16 11:00N 37°40' E 023°45'1 1.3
2018-Feb-16 10:30N 37°41' E 023°46'2 3.9
2018-Feb-16 10:00N 37°39' E 023°46'510.3
2018-Feb-16 09:30N 37°34' E 023°49'713.1
2018-Feb-16 09:00N 37°28' E 023°51'  

Dump ship's entire track history